Time;durP1;ratioP1;P1;durP2;ratioP2;P2;SDS_P1;SDS_P2;PMS_P1;PMS_P2;Temp;Humidity;BMP_temperature;BMP_pressure;BME280_temperature;BME280_humidity;BME280_pressure;Samples;Min_cycle;Max_cycle;Signal;HPM_P1;HPM_P2
2023/03/13 00:00:31;;;;;;;;;;;12.10;99.90;;;;;;5082604;28;19920;-60
2023/03/13 00:02:56;;;;;;;;;;;12.10;99.90;;;;;;5075741;28;19916;-60
2023/03/13 00:05:22;;;;;;;;;;;12.10;99.90;;;;;;5073421;28;19913;-60
2023/03/13 00:07:47;;;;;;;;;;;12.10;99.90;;;;;;5077396;28;19920;-61
2023/03/13 00:10:13;;;;;;;;;;;12.10;99.90;;;;;;5077456;28;20275;-61
2023/03/13 00:12:38;;;;;;;;;;;12.10;99.90;;;;;;5067221;28;20324;-62
2023/03/13 00:15:04;;;;;;;;;;;12.10;99.90;;;;;;5075513;28;19920;-60
2023/03/13 00:17:30;;;;;;;;;;;12.10;99.90;;;;;;5071779;28;19982;-61
2023/03/13 00:19:56;;;;;;;;;;;12.10;99.90;;;;;;5077123;28;19985;-61
2023/03/13 00:22:21;;;;;;;;;;;12.10;99.90;;;;;;5076817;28;20245;-61
2023/03/13 00:24:47;;;;;;;;;;;12.10;99.90;;;;;;5061396;28;20388;-60
2023/03/13 00:30:16;;;;;;;;;;;12.20;99.90;;;;;;5061336;28;19922;-61
2023/03/13 00:32:42;;;;;;;;;;;12.10;99.90;;;;;;5067444;28;19913;-61
2023/03/13 00:35:08;;;;;;;;;;;12.10;99.90;;;;;;5081567;28;19946;-61
2023/03/13 00:37:33;;;;;;;;;;;12.10;99.90;;;;;;5077432;28;19913;-61
2023/03/13 00:39:59;;;;;;;;;;;12.10;99.90;;;;;;5072573;28;19964;-61
2023/03/13 00:42:24;;;;;;;;;;;12.10;99.90;;;;;;5068088;28;19982;-61
2023/03/13 00:44:50;;;;;;;;;;;12.00;99.90;;;;;;5077493;28;20284;-60
2023/03/13 00:47:15;;;;;;;;;;;12.00;99.90;;;;;;5076678;28;19985;-61
2023/03/13 00:49:41;;;;;;;;;;;12.00;99.90;;;;;;5078227;28;19920;-61
2023/03/13 00:52:07;;;;;;;;;;;11.90;99.90;;;;;;5072176;28;20395;-62
2023/03/13 00:54:32;;;;;;;;;;;11.90;99.90;;;;;;5074508;28;19920;-61
2023/03/13 00:56:58;;;;;;;;;;;11.90;99.90;;;;;;5078116;28;19913;-61
2023/03/13 00:59:23;;;;;;;;;;;11.90;99.90;;;;;;5075341;28;19982;-61
2023/03/13 01:01:49;;;;;;;;;;;11.90;99.90;;;;;;5070882;28;20368;-61
2023/03/13 01:04:15;;;;;;;;;;;11.90;99.90;;;;;;5085662;28;20012;-61
2023/03/13 01:06:43;;;;;;;;;;;11.90;99.90;;;;;;5079304;28;19912;-61
2023/03/13 01:09:11;;;;;;;;;;;11.90;99.90;;;;;;5076054;28;19916;-61
2023/03/13 01:11:38;;;;;;;;;;;11.90;99.90;;;;;;5074509;28;19917;-61
2023/03/13 01:14:05;;;;;;;;;;;11.90;99.90;;;;;;5078100;28;19916;-61
2023/03/13 01:16:31;;;;;;;;;;;11.80;99.90;;;;;;5076605;28;19925;-61
2023/03/13 01:19:01;;;;;;;;;;;11.80;99.90;;;;;;5081024;28;19920;-61
2023/03/13 01:21:27;;;;;;;;;;;11.80;99.90;;;;;;5076327;28;19917;-61
2023/03/13 01:23:53;;;;;;;;;;;11.70;99.90;;;;;;5082023;28;19912;-61
2023/03/13 01:26:19;;;;;;;;;;;11.70;99.90;;;;;;5075758;28;19916;-61
2023/03/13 01:28:44;;;;;;;;;;;11.70;99.90;;;;;;5086058;28;19938;-63
2023/03/13 01:31:14;;;;;;;;;;;11.70;99.90;;;;;;5077658;28;19917;-61
2023/03/13 01:33:40;;;;;;;;;;;11.70;99.90;;;;;;5074694;28;19912;-61
2023/03/13 01:36:06;;;;;;;;;;;11.70;99.90;;;;;;5078652;28;20287;-61
2023/03/13 01:38:31;;;;;;;;;;;11.70;99.90;;;;;;5076786;28;19912;-61
2023/03/13 01:40:57;;;;;;;;;;;11.80;99.90;;;;;;5082002;28;19958;-60
2023/03/13 01:43:27;;;;;;;;;;;11.80;99.90;;;;;;5075401;28;20440;-61
2023/03/13 01:46:12;;;;;;;;;;;11.80;99.90;;;;;;5083843;28;19913;-61
2023/03/13 01:48:44;;;;;;;;;;;11.90;99.90;;;;;;5090039;28;20386;-61
2023/03/13 01:51:16;;;;;;;;;;;11.90;99.90;;;;;;5083187;28;19916;-61
2023/03/13 01:53:44;;;;;;;;;;;11.90;99.90;;;;;;5082873;28;19912;-60
2023/03/13 01:56:12;;;;;;;;;;;11.90;99.90;;;;;;5079601;28;20323;-61
2023/03/13 01:58:38;;;;;;;;;;;11.90;99.90;;;;;;5084325;28;19916;-60
2023/03/13 02:01:04;;;;;;;;;;;11.90;99.90;;;;;;5079449;28;19912;-62
2023/03/13 02:03:29;;;;;;;;;;;11.80;99.90;;;;;;5082651;28;19912;-60
2023/03/13 02:05:56;;;;;;;;;;;11.80;99.90;;;;;;5082822;28;20271;-61
2023/03/13 02:08:24;;;;;;;;;;;11.70;99.90;;;;;;5086427;28;19912;-60
2023/03/13 02:10:52;;;;;;;;;;;11.70;99.90;;;;;;5074462;28;20360;-61
2023/03/13 02:13:18;;;;;;;;;;;11.70;99.90;;;;;;5081837;28;19935;-61
2023/03/13 02:15:44;;;;;;;;;;;11.70;99.90;;;;;;5078341;28;19920;-62
2023/03/13 02:18:09;;;;;;;;;;;11.80;99.90;;;;;;5080287;28;20401;-61
2023/03/13 02:20:37;;;;;;;;;;;11.80;99.90;;;;;;5075007;28;19912;-61
2023/03/13 02:23:21;;;;;;;;;;;11.80;99.90;;;;;;5074409;28;19924;-62
2023/03/13 02:25:47;;;;;;;;;;;11.80;99.90;;;;;;5075243;28;19913;-62
2023/03/13 02:28:24;;;;;;;;;;;11.80;99.90;;;;;;5077505;28;19927;-62
2023/03/13 02:30:53;;;;;;;;;;;11.80;99.90;;;;;;5070789;28;19958;-62
2023/03/13 02:33:19;;;;;;;;;;;11.80;99.90;;;;;;5070042;28;20352;-61
2023/03/13 02:35:45;;;;;;;;;;;11.70;99.90;;;;;;5074672;28;19943;-62
2023/03/13 02:38:12;;;;;;;;;;;11.70;99.90;;;;;;5070432;28;19913;-62
2023/03/13 02:40:40;;;;;;;;;;;11.70;99.90;;;;;;5073826;28;19916;-61
2023/03/13 02:43:07;;;;;;;;;;;11.60;99.90;;;;;;5065955;28;19927;-63
2023/03/13 02:45:33;;;;;;;;;;;11.60;99.90;;;;;;5085895;28;19912;-62
2023/03/13 02:47:59;;;;;;;;;;;11.60;99.90;;;;;;5079587;28;19938;-62
2023/03/13 02:50:25;;;;;;;;;;;11.60;99.90;;;;;;5075731;28;19966;-62
2023/03/13 02:52:54;;;;;;;;;;;11.60;99.90;;;;;;5070235;28;20384;-62
2023/03/13 02:55:28;;;;;;;;;;;11.60;99.90;;;;;;5060916;28;19920;-62
2023/03/13 02:57:54;;;;;;;;;;;11.60;99.90;;;;;;5079976;28;19919;-62
2023/03/13 03:00:25;;;;;;;;;;;11.50;99.90;;;;;;5077477;28;19912;-62
2023/03/13 03:02:50;;;;;;;;;;;11.50;99.90;;;;;;5073541;28;19916;-62
2023/03/13 03:05:16;;;;;;;;;;;11.50;99.90;;;;;;5071909;28;19970;-62
2023/03/13 03:08:00;;;;;;;;;;;11.40;99.90;;;;;;5073158;28;19912;-62
2023/03/13 03:10:26;;;;;;;;;;;11.40;99.90;;;;;;5071459;28;20257;-63
2023/03/13 03:12:51;;;;;;;;;;;11.40;99.90;;;;;;5067438;28;19934;-63
2023/03/13 03:15:19;;;;;;;;;;;11.30;99.90;;;;;;5078757;28;20456;-63
2023/03/13 03:18:12;;;;;;;;;;;11.40;99.90;;;;;;5075030;28;20391;-63
2023/03/13 03:23:50;;;;;;;;;;;11.40;99.90;;;;;;5075244;28;19919;-65
2023/03/13 03:26:16;;;;;;;;;;;11.40;99.90;;;;;;5072857;28;20008;-66
2023/03/13 03:28:41;;;;;;;;;;;11.40;99.90;;;;;;5070451;28;19951;-68
2023/03/13 03:34:10;;;;;;;;;;;11.40;99.90;;;;;;5066701;28;19928;-69
2023/03/13 03:36:47;;;;;;;;;;;11.40;99.90;;;;;;5072915;28;19920;-68
2023/03/13 03:48:29;;;;;;;;;;;11.50;99.90;;;;;;5064831;28;19920;-66
2023/03/13 03:53:58;;;;;;;;;;;11.50;99.90;;;;;;5066554;28;19937;-68
2023/03/13 03:56:55;;;;;;;;;;;11.50;99.90;;;;;;5071232;28;19912;-66
2023/03/13 03:59:24;;;;;;;;;;;11.60;99.90;;;;;;5079523;28;19912;-65
2023/03/13 04:11:21;;;;;;;;;;;11.60;99.90;;;;;;5090243;28;19938;-66
2023/03/13 04:13:46;;;;;;;;;;;11.70;99.90;;;;;;5083945;28;20359;-64
2023/03/13 04:16:12;;;;;;;;;;;11.60;99.90;;;;;;5082983;28;19927;-63
2023/03/13 04:18:37;;;;;;;;;;;11.60;99.90;;;;;;5085379;28;20409;-63
2023/03/13 04:21:04;;;;;;;;;;;11.60;99.90;;;;;;5090496;28;19912;-63
2023/03/13 04:23:29;;;;;;;;;;;11.70;99.90;;;;;;5088198;28;19914;-64
2023/03/13 04:25:58;;;;;;;;;;;11.80;99.90;;;;;;5077377;28;19912;-63
2023/03/13 04:28:48;;;;;;;;;;;11.80;99.90;;;;;;5079225;28;19962;-68
2023/03/13 04:31:17;;;;;;;;;;;11.80;99.90;;;;;;5063931;28;20359;-71
2023/03/13 04:33:43;;;;;;;;;;;11.80;99.90;;;;;;5074500;28;19952;-69
2023/03/13 04:36:09;;;;;;;;;;;11.80;99.90;;;;;;5077651;28;20414;-70
2023/03/13 04:44:40;;;;;;;;;;;12.00;99.90;;;;;;5068194;28;19943;-65
2023/03/13 04:47:06;;;;;;;;;;;12.00;99.90;;;;;;5077516;28;20317;-63
2023/03/13 04:49:44;;;;;;;;;;;12.00;99.90;;;;;;5075695;28;19999;-63
2023/03/13 04:52:10;;;;;;;;;;;12.00;99.90;;;;;;5079523;28;20027;-63
2023/03/13 04:54:35;;;;;;;;;;;12.10;99.90;;;;;;5075465;28;20050;-63
2023/03/13 04:57:01;;;;;;;;;;;12.00;99.90;;;;;;5080143;28;19912;-63
2023/03/13 04:59:26;;;;;;;;;;;12.00;99.90;;;;;;5075392;28;19913;-63
2023/03/13 05:01:52;;;;;;;;;;;12.00;99.90;;;;;;5068079;28;19912;-62
2023/03/13 05:04:17;;;;;;;;;;;12.00;99.90;;;;;;5080242;28;19912;-62
2023/03/13 05:06:43;;;;;;;;;;;12.00;99.90;;;;;;5076576;28;19919;-62
2023/03/13 05:09:09;;;;;;;;;;;12.00;99.90;;;;;;5072522;28;19913;-62
2023/03/13 05:11:34;;;;;;;;;;;12.00;99.90;;;;;;5078638;28;19955;-62
2023/03/13 05:14:00;;;;;;;;;;;12.00;99.90;;;;;;5084722;28;19912;-62
2023/03/13 05:16:26;;;;;;;;;;;12.00;99.90;;;;;;5073651;28;19997;-62
2023/03/13 05:18:51;;;;;;;;;;;12.00;99.90;;;;;;5086044;28;19912;-62
2023/03/13 05:21:17;;;;;;;;;;;12.00;99.90;;;;;;5082947;28;19912;-62
2023/03/13 05:23:42;;;;;;;;;;;12.00;99.90;;;;;;5088394;28;19912;-61
2023/03/13 05:26:08;;;;;;;;;;;12.00;99.90;;;;;;5079603;28;19912;-61
2023/03/13 05:34:52;;;;;;;;;;;11.90;99.90;;;;;;5072373;28;19928;-68
2023/03/13 05:37:17;;;;;;;;;;;11.90;99.90;;;;;;5074988;28;19913;-68
2023/03/13 05:39:43;;;;;;;;;;;12.00;99.90;;;;;;5072516;28;19919;-65
2023/03/13 05:42:09;;;;;;;;;;;11.90;99.90;;;;;;5077926;28;19913;-66
2023/03/13 05:44:34;;;;;;;;;;;11.90;99.90;;;;;;5069334;28;20073;-62
2023/03/13 05:47:00;;;;;;;;;;;11.90;99.90;;;;;;5074300;28;19927;-63
2023/03/13 05:49:25;;;;;;;;;;;11.90;99.90;;;;;;5077190;28;19916;-63
2023/03/13 05:52:00;;;;;;;;;;;11.90;99.90;;;;;;5076300;28;19912;-63
2023/03/13 05:54:26;;;;;;;;;;;11.90;99.90;;;;;;5073003;28;19921;-63
2023/03/13 05:56:51;;;;;;;;;;;11.90;99.90;;;;;;5078848;28;19935;-63
2023/03/13 05:59:17;;;;;;;;;;;12.00;99.90;;;;;;5083565;28;19912;-63
2023/03/13 06:01:42;;;;;;;;;;;11.90;99.90;;;;;;5076669;28;19919;-63
2023/03/13 06:04:08;;;;;;;;;;;12.00;99.90;;;;;;5071039;28;19912;-62
2023/03/13 06:06:33;;;;;;;;;;;12.00;99.90;;;;;;5079630;28;19912;-62
2023/03/13 06:08:59;;;;;;;;;;;11.90;99.90;;;;;;5079315;28;20395;-63
2023/03/13 06:11:25;;;;;;;;;;;11.90;99.90;;;;;;5083877;28;20371;-62
2023/03/13 06:13:51;;;;;;;;;;;11.90;99.90;;;;;;5073086;28;19913;-63
2023/03/13 06:16:17;;;;;;;;;;;12.00;99.90;;;;;;5070946;28;20359;-62
2023/03/13 06:18:43;;;;;;;;;;;11.90;99.90;;;;;;5083689;28;20391;-62
2023/03/13 06:21:08;;;;;;;;;;;11.80;99.90;;;;;;5077948;28;19912;-62
2023/03/13 06:23:34;;;;;;;;;;;11.80;99.90;;;;;;5084507;28;19935;-62
2023/03/13 06:26:00;;;;;;;;;;;11.80;99.90;;;;;;5077797;28;19912;-61
2023/03/13 06:28:25;;;;;;;;;;;11.80;99.90;;;;;;5081913;28;19919;-62
2023/03/13 06:30:51;;;;;;;;;;;11.80;99.90;;;;;;5073077;28;19913;-62
2023/03/13 06:33:17;;;;;;;;;;;11.80;99.90;;;;;;5071851;28;20346;-63
2023/03/13 06:35:42;;;;;;;;;;;11.80;99.90;;;;;;5083475;28;19920;-63
2023/03/13 06:38:08;;;;;;;;;;;11.80;99.90;;;;;;5071955;28;20288;-63
2023/03/13 06:40:34;;;;;;;;;;;11.80;99.90;;;;;;5077210;28;19912;-63
2023/03/13 06:42:59;;;;;;;;;;;11.80;99.90;;;;;;5072490;28;19925;-63
2023/03/13 06:45:25;;;;;;;;;;;11.80;99.90;;;;;;5068564;28;19960;-63
2023/03/13 06:47:51;;;;;;;;;;;11.80;99.90;;;;;;5076247;28;20301;-61
2023/03/13 06:50:17;;;;;;;;;;;11.80;99.90;;;;;;5075628;28;19923;-61
2023/03/13 06:52:42;;;;;;;;;;;11.70;99.90;;;;;;5072873;28;19913;-62
2023/03/13 06:55:08;;;;;;;;;;;11.70;99.90;;;;;;5063608;28;19925;-62
2023/03/13 06:57:34;;;;;;;;;;;11.70;99.90;;;;;;5065441;28;19944;-62
2023/03/13 06:59:59;;;;;;;;;;;11.70;99.90;;;;;;5067820;28;19921;-62
2023/03/13 07:02:25;;;;;;;;;;;11.70;99.90;;;;;;5066383;28;20126;-62
2023/03/13 07:04:51;;;;;;;;;;;11.60;99.90;;;;;;5071947;28;19912;-62
2023/03/13 07:07:16;;;;;;;;;;;11.70;99.90;;;;;;5081910;28;19916;-61
2023/03/13 07:09:42;;;;;;;;;;;11.70;99.90;;;;;;5066022;28;20287;-62
2023/03/13 07:12:07;;;;;;;;;;;11.70;99.90;;;;;;5065573;28;19912;-62
2023/03/13 07:14:33;;;;;;;;;;;11.70;99.90;;;;;;5072834;28;19928;-62
2023/03/13 07:16:59;;;;;;;;;;;11.70;99.90;;;;;;5065320;28;20274;-61
2023/03/13 07:19:26;;;;;;;;;;;11.70;99.90;;;;;;5067635;28;19983;-60
2023/03/13 07:21:52;;;;;;;;;;;11.70;99.90;;;;;;5073792;28;20402;-61
2023/03/13 07:24:18;;;;;;;;;;;11.70;99.90;;;;;;5079995;28;19920;-61
2023/03/13 07:26:44;;;;;;;;;;;11.70;99.90;;;;;;5077520;28;20338;-61
2023/03/13 07:29:09;;;;;;;;;;;11.70;99.90;;;;;;5072344;28;19912;-61
2023/03/13 07:31:35;;;;;;;;;;;11.80;99.90;;;;;;5070093;28;20256;-61
2023/03/13 07:34:00;;;;;;;;;;;11.80;99.90;;;;;;5081225;28;19912;-61
2023/03/13 07:36:26;;;;;;;;;;;11.80;99.90;;;;;;5071271;28;20050;-61
2023/03/13 07:38:52;;;;;;;;;;;11.80;99.90;;;;;;5072907;28;20021;-62
2023/03/13 07:41:18;;;;;;;;;;;11.90;99.90;;;;;;5069274;28;19919;-61
2023/03/13 07:43:44;;;;;;;;;;;11.80;99.90;;;;;;5077718;28;19913;-61
2023/03/13 07:46:11;;;;;;;;;;;11.80;99.90;;;;;;5070071;28;20384;-61
2023/03/13 07:48:38;;;;;;;;;;;11.90;99.90;;;;;;5070431;28;20356;-61
2023/03/13 07:51:04;;;;;;;;;;;11.90;99.90;;;;;;5082092;28;20379;-61
2023/03/13 07:53:30;;;;;;;;;;;11.90;99.90;;;;;;5077318;28;20011;-61
2023/03/13 07:55:57;;;;;;;;;;;11.80;99.90;;;;;;5074409;28;20014;-62
2023/03/13 07:58:23;;;;;;;;;;;11.80;99.90;;;;;;5072662;28;19927;-61
2023/03/13 08:00:49;;;;;;;;;;;11.70;99.90;;;;;;5068481;28;19912;-62
2023/03/13 08:03:14;;;;;;;;;;;11.60;99.90;;;;;;5058759;28;20678;-62
2023/03/13 08:05:40;;;;;;;;;;;11.70;99.90;;;;;;5069232;28;19948;-62
2023/03/13 08:08:06;;;;;;;;;;;11.70;99.90;;;;;;5072817;28;19916;-62
2023/03/13 08:10:32;;;;;;;;;;;11.70;99.90;;;;;;5065417;28;19931;-61
2023/03/13 08:12:57;;;;;;;;;;;11.80;99.90;;;;;;5070949;28;19917;-62
2023/03/13 08:15:25;;;;;;;;;;;11.80;99.90;;;;;;5071343;28;19921;-61
2023/03/13 08:17:53;;;;;;;;;;;11.90;99.90;;;;;;5072131;28;20007;-64
2023/03/13 08:20:18;;;;;;;;;;;11.90;99.90;;;;;;5065451;28;19913;-61
2023/03/13 08:22:45;;;;;;;;;;;11.90;99.90;;;;;;5069836;28;20003;-62
2023/03/13 08:25:13;;;;;;;;;;;11.90;99.90;;;;;;5070294;28;20194;-61
2023/03/13 08:27:39;;;;;;;;;;;12.00;99.90;;;;;;5076441;28;19912;-61
2023/03/13 08:30:05;;;;;;;;;;;12.00;99.90;;;;;;5067557;28;19919;-61
2023/03/13 08:32:34;;;;;;;;;;;12.00;99.90;;;;;;5071023;28;19913;-61
2023/03/13 08:35:00;;;;;;;;;;;12.00;99.90;;;;;;5067342;28;19921;-62
2023/03/13 08:37:25;;;;;;;;;;;11.90;99.90;;;;;;5066221;28;19966;-63
2023/03/13 08:39:53;;;;;;;;;;;11.90;99.90;;;;;;5067171;28;20542;-62
2023/03/13 08:42:18;;;;;;;;;;;11.80;99.90;;;;;;5059413;28;19912;-61
2023/03/13 08:44:44;;;;;;;;;;;11.70;99.90;;;;;;5070377;28;19920;-62
2023/03/13 08:47:09;;;;;;;;;;;11.60;99.90;;;;;;5057859;28;19944;-62
2023/03/13 08:49:35;;;;;;;;;;;11.60;99.90;;;;;;5067987;28;20386;-61
2023/03/13 08:52:02;;;;;;;;;;;11.70;99.90;;;;;;5067508;28;20297;-62
2023/03/13 08:54:28;;;;;;;;;;;11.70;99.90;;;;;;5067823;28;19920;-61
2023/03/13 08:56:53;;;;;;;;;;;11.70;99.90;;;;;;5069448;28;20283;-61
2023/03/13 08:59:19;;;;;;;;;;;11.80;99.90;;;;;;5076742;28;20279;-61
2023/03/13 09:01:44;;;;;;;;;;;11.80;99.90;;;;;;5087947;28;19912;-62
2023/03/13 09:04:10;;;;;;;;;;;11.90;99.90;;;;;;5060969;28;20814;-62
2023/03/13 09:06:36;;;;;;;;;;;11.90;99.90;;;;;;5065908;28;19987;-62
2023/03/13 09:09:03;;;;;;;;;;;11.90;99.90;;;;;;5062498;28;20419;-62
2023/03/13 09:11:31;;;;;;;;;;;12.00;99.90;;;;;;5058821;28;19917;-62
2023/03/13 09:13:59;;;;;;;;;;;12.00;99.90;;;;;;5064440;28;20384;-62
2023/03/13 09:16:28;;;;;;;;;;;12.10;99.90;;;;;;5060272;28;20398;-62
2023/03/13 09:18:54;;;;;;;;;;;12.00;99.90;;;;;;5058893;28;20348;-62
2023/03/13 09:21:21;;;;;;;;;;;12.00;99.90;;;;;;5075016;28;20379;-62
2023/03/13 09:23:47;;;;;;;;;;;12.00;99.90;;;;;;5070339;28;19913;-63
2023/03/13 09:26:13;;;;;;;;;;;11.90;99.90;;;;;;5064632;28;20245;-62
2023/03/13 09:28:40;;;;;;;;;;;11.90;99.90;;;;;;5064975;28;19916;-62
2023/03/13 09:31:10;;;;;;;;;;;11.80;99.90;;;;;;5039582;28;20003;-63
2023/03/13 09:33:36;;;;;;;;;;;11.70;99.90;;;;;;5078564;28;20011;-62
2023/03/13 09:36:01;;;;;;;;;;;11.70;99.90;;;;;;5067414;28;20011;-61
2023/03/13 09:38:27;;;;;;;;;;;11.70;99.90;;;;;;5068267;28;19919;-61
2023/03/13 09:40:53;;;;;;;;;;;11.70;99.90;;;;;;5070029;28;19916;-62
2023/03/13 09:43:31;;;;;;;;;;;11.70;99.90;;;;;;5072179;28;19942;-62
2023/03/13 09:46:00;;;;;;;;;;;11.70;99.90;;;;;;5065610;28;19920;-63
2023/03/13 09:48:30;;;;;;;;;;;11.80;99.90;;;;;;5059456;28;19935;-62
2023/03/13 09:51:10;;;;;;;;;;;11.90;99.90;;;;;;5063011;28;19917;-62
2023/03/13 09:53:55;;;;;;;;;;;11.90;99.90;;;;;;5074591;28;20003;-62
2023/03/13 09:56:34;;;;;;;;;;;12.00;99.90;;;;;;5059731;28;19920;-63
2023/03/13 09:59:21;;;;;;;;;;;12.00;99.90;;;;;;5070086;28;20351;-62
2023/03/13 10:01:48;;;;;;;;;;;12.10;99.90;;;;;;5065677;28;20013;-62
2023/03/13 10:04:26;;;;;;;;;;;12.10;99.90;;;;;;5069046;28;20413;-62
2023/03/13 10:06:52;;;;;;;;;;;12.10;99.90;;;;;;5064502;28;19912;-63
2023/03/13 10:09:19;;;;;;;;;;;12.10;99.90;;;;;;5063509;28;19977;-63
2023/03/13 10:12:14;;;;;;;;;;;12.20;99.90;;;;;;5060512;28;19923;-62
2023/03/13 10:14:40;;;;;;;;;;;12.20;99.90;;;;;;5070446;28;20066;-62
2023/03/13 10:17:09;;;;;;;;;;;12.20;99.90;;;;;;5062429;28;20446;-61
2023/03/13 10:19:36;;;;;;;;;;;12.10;99.90;;;;;;5065469;28;20002;-61
2023/03/13 10:22:07;;;;;;;;;;;12.10;99.90;;;;;;5061602;28;19966;-61
2023/03/13 10:24:36;;;;;;;;;;;12.20;99.90;;;;;;5068403;28;19912;-62
2023/03/13 10:27:02;;;;;;;;;;;12.20;99.90;;;;;;5058416;28;19913;-61
2023/03/13 10:29:29;;;;;;;;;;;12.30;99.90;;;;;;5060785;28;19912;-61
2023/03/13 10:31:59;;;;;;;;;;;12.30;99.90;;;;;;5063097;28;19920;-61
2023/03/13 10:34:26;;;;;;;;;;;12.40;99.90;;;;;;5077822;28;19912;-61
2023/03/13 10:36:59;;;;;;;;;;;12.40;99.90;;;;;;5064586;28;19951;-62
2023/03/13 10:39:26;;;;;;;;;;;12.50;99.90;;;;;;5065446;28;19958;-62
2023/03/13 10:41:56;;;;;;;;;;;12.60;99.90;;;;;;5068755;28;20015;-61
2023/03/13 10:44:23;;;;;;;;;;;12.70;99.90;;;;;;5065550;28;20320;-61
2023/03/13 10:46:49;;;;;;;;;;;12.80;99.90;;;;;;5067489;28;19978;-61
2023/03/13 10:49:17;;;;;;;;;;;12.90;99.90;;;;;;5065892;28;19913;-62
2023/03/13 10:51:47;;;;;;;;;;;13.00;99.90;;;;;;5065857;28;19916;-63
2023/03/13 10:54:22;;;;;;;;;;;13.30;99.90;;;;;;5062906;28;19943;-62
2023/03/13 10:56:48;;;;;;;;;;;13.40;99.90;;;;;;5063066;28;20382;-61
2023/03/13 10:59:20;;;;;;;;;;;13.80;99.90;;;;;;5070197;28;19958;-62
2023/03/13 11:01:46;;;;;;;;;;;13.80;99.90;;;;;;5055358;28;19963;-62
2023/03/13 11:04:19;;;;;;;;;;;13.60;99.90;;;;;;5065209;28;19952;-63
2023/03/13 11:06:56;;;;;;;;;;;13.70;99.90;;;;;;5066419;28;19995;-62
2023/03/13 11:09:23;;;;;;;;;;;13.80;99.90;;;;;;5060644;28;19935;-62
2023/03/13 11:11:50;;;;;;;;;;;13.40;99.90;;;;;;5054287;28;19917;-63
2023/03/13 11:14:19;;;;;;;;;;;13.30;99.90;;;;;;5060136;28;19916;-62
2023/03/13 11:16:46;;;;;;;;;;;13.20;99.90;;;;;;5061617;28;20343;-61
2023/03/13 11:19:12;;;;;;;;;;;13.30;99.90;;;;;;5063810;28;19916;-64
2023/03/13 11:21:37;;;;;;;;;;;13.40;99.90;;;;;;5066895;28;19920;-61
2023/03/13 11:24:07;;;;;;;;;;;13.60;99.90;;;;;;5067758;28;19920;-62
2023/03/13 11:26:38;;;;;;;;;;;13.90;99.90;;;;;;5063558;28;20016;-62
2023/03/13 11:29:22;;;;;;;;;;;14.10;99.90;;;;;;5055018;28;20455;-63
2023/03/13 11:31:55;;;;;;;;;;;14.30;99.90;;;;;;5062752;28;19943;-62
2023/03/13 11:34:26;;;;;;;;;;;14.30;99.90;;;;;;5067343;28;20326;-62
2023/03/13 11:37:00;;;;;;;;;;;14.30;99.90;;;;;;5054871;28;20024;-62
2023/03/13 11:39:40;;;;;;;;;;;14.40;99.90;;;;;;5062856;28;20361;-62
2023/03/13 11:42:24;;;;;;;;;;;14.40;99.90;;;;;;5054519;28;19956;-62
2023/03/13 11:45:10;;;;;;;;;;;14.50;99.90;;;;;;5061889;28;20259;-62
2023/03/13 11:47:51;;;;;;;;;;;14.30;99.90;;;;;;5046976;28;19920;-62
2023/03/13 11:50:29;;;;;;;;;;;13.90;99.90;;;;;;5064759;28;20013;-63
2023/03/13 11:53:09;;;;;;;;;;;13.50;99.90;;;;;;5059286;28;19912;-62
2023/03/13 11:55:35;;;;;;;;;;;13.50;99.90;;;;;;5062931;28;19928;-61
2023/03/13 11:58:03;;;;;;;;;;;13.60;99.90;;;;;;5066372;28;20279;-62
2023/03/13 12:00:34;;;;;;;;;;;13.80;99.90;;;;;;5059274;28;19916;-62
2023/03/13 12:03:15;;;;;;;;;;;14.20;99.90;;;;;;5066725;28;19931;-62
2023/03/13 12:05:45;;;;;;;;;;;14.30;99.90;;;;;;5058985;28;20032;-62
2023/03/13 12:08:14;;;;;;;;;;;14.20;99.90;;;;;;5058452;28;19925;-63
2023/03/13 12:10:42;;;;;;;;;;;14.30;99.90;;;;;;5064865;28;19916;-63
2023/03/13 12:13:17;;;;;;;;;;;14.60;99.90;;;;;;5063467;28;19956;-63
2023/03/13 12:15:44;;;;;;;;;;;14.70;99.90;;;;;;5059969;28;20002;-63
2023/03/13 12:18:29;;;;;;;;;;;14.60;99.90;;;;;;5064091;28;20279;-62
2023/03/13 12:20:57;;;;;;;;;;;14.70;99.90;;;;;;5063017;28;19919;-63
2023/03/13 12:23:27;;;;;;;;;;;14.30;99.90;;;;;;5060074;28;19920;-62
2023/03/13 12:25:55;;;;;;;;;;;14.10;99.90;;;;;;5065819;28;19920;-61
2023/03/13 12:28:23;;;;;;;;;;;14.00;99.90;;;;;;5058376;28;19921;-62
2023/03/13 12:30:53;;;;;;;;;;;14.00;99.90;;;;;;5062531;28;19913;-61
2023/03/13 12:33:28;;;;;;;;;;;13.90;99.90;;;;;;5062241;28;20294;-63
2023/03/13 12:36:12;;;;;;;;;;;13.70;99.90;;;;;;5065469;28;19921;-61
2023/03/13 12:38:40;;;;;;;;;;;13.40;99.90;;;;;;5070125;28;19912;-62
2023/03/13 12:41:23;;;;;;;;;;;13.30;99.90;;;;;;5064543;28;19913;-63
2023/03/13 12:43:50;;;;;;;;;;;13.10;99.90;;;;;;5061934;28;20244;-63
2023/03/13 12:46:28;;;;;;;;;;;13.30;99.90;;;;;;5062164;28;20435;-63
2023/03/13 12:48:54;;;;;;;;;;;13.50;99.90;;;;;;5067483;28;19967;-61
2023/03/13 12:51:39;;;;;;;;;;;13.70;99.90;;;;;;5064018;28;20356;-61
2023/03/13 12:54:04;;;;;;;;;;;13.60;99.90;;;;;;5065961;28;19919;-62
2023/03/13 12:56:42;;;;;;;;;;;13.40;99.90;;;;;;5067546;28;19928;-62
2023/03/13 12:59:28;;;;;;;;;;;13.20;99.90;;;;;;5067641;28;20283;-62
2023/03/13 13:01:54;;;;;;;;;;;13.40;99.90;;;;;;5051695;28;20328;-61
2023/03/13 13:04:27;;;;;;;;;;;13.70;99.90;;;;;;5060315;28;19913;-62
2023/03/13 13:06:56;;;;;;;;;;;13.80;99.90;;;;;;5066985;28;20339;-62
2023/03/13 13:09:24;;;;;;;;;;;13.80;99.90;;;;;;5063477;28;20276;-63
2023/03/13 13:11:51;;;;;;;;;;;13.90;99.90;;;;;;5064004;28;20018;-61
2023/03/13 13:14:16;;;;;;;;;;;14.00;99.90;;;;;;5065200;28;19912;-61
2023/03/13 13:17:01;;;;;;;;;;;13.90;99.90;;;;;;5071094;28;20295;-62
2023/03/13 13:19:26;;;;;;;;;;;14.00;99.90;;;;;;5062118;28;19962;-62
2023/03/13 13:22:11;;;;;;;;;;;14.30;99.90;;;;;;5055590;28;19951;-62
2023/03/13 13:24:49;;;;;;;;;;;14.70;99.90;;;;;;5065455;28;19951;-62
2023/03/13 13:27:44;;;;;;;;;;;15.10;99.90;;;;;;5060868;28;19920;-62
2023/03/13 13:30:18;;;;;;;;;;;15.00;99.90;;;;;;5068376;28;20257;-62
2023/03/13 13:32:48;;;;;;;;;;;14.80;99.90;;;;;;5069676;28;19920;-62
2023/03/13 13:35:26;;;;;;;;;;;14.30;99.90;;;;;;5063195;28;19921;-62
2023/03/13 13:37:52;;;;;;;;;;;13.80;99.90;;;;;;5062027;28;20295;-62
2023/03/13 13:40:20;;;;;;;;;;;13.80;99.90;;;;;;5066038;28;19923;-63
2023/03/13 13:42:50;;;;;;;;;;;13.70;99.90;;;;;;5063997;28;19926;-62
2023/03/13 13:45:15;;;;;;;;;;;13.70;99.90;;;;;;5064916;28;20402;-62
2023/03/13 13:47:48;;;;;;;;;;;13.70;99.90;;;;;;5061522;28;19921;-61
2023/03/13 13:50:19;;;;;;;;;;;13.70;99.90;;;;;;5062599;28;20057;-61
2023/03/13 13:52:46;;;;;;;;;;;14.00;99.90;;;;;;5063324;28;19928;-61
2023/03/13 13:55:30;;;;;;;;;;;14.40;99.90;;;;;;5061117;28;19973;-60
2023/03/13 13:57:58;;;;;;;;;;;14.80;99.90;;;;;;5070551;28;19914;-61
2023/03/13 14:00:25;;;;;;;;;;;14.80;99.90;;;;;;5067773;28;19934;-62
2023/03/13 14:02:52;;;;;;;;;;;15.30;99.90;;;;;;5067996;28;20032;-61
2023/03/13 14:05:25;;;;;;;;;;;16.10;99.90;;;;;;5071133;28;19916;-62
2023/03/13 14:08:10;;;;;;;;;;;16.50;99.90;;;;;;5064086;28;19913;-63
2023/03/13 14:10:35;;;;;;;;;;;16.00;99.90;;;;;;5070540;28;20008;-62
2023/03/13 14:13:02;;;;;;;;;;;15.30;99.90;;;;;;5065736;28;19917;-62
2023/03/13 14:15:29;;;;;;;;;;;14.50;99.90;;;;;;5065403;28;20328;-62
2023/03/13 14:18:17;;;;;;;;;;;14.00;99.90;;;;;;5064857;28;19912;-61
2023/03/13 14:20:57;;;;;;;;;;;13.90;99.90;;;;;;5067000;28;19912;-62
2023/03/13 14:23:28;;;;;;;;;;;13.80;99.90;;;;;;5068841;28;19912;-61
2023/03/13 14:25:54;;;;;;;;;;;14.20;99.90;;;;;;5075903;28;19920;-62
2023/03/13 14:28:24;;;;;;;;;;;14.40;99.90;;;;;;5081863;28;19912;-62
2023/03/13 14:30:54;;;;;;;;;;;14.40;99.90;;;;;;5073687;28;19912;-62
2023/03/13 14:33:19;;;;;;;;;;;14.40;99.90;;;;;;5065879;28;19916;-62
2023/03/13 14:35:46;;;;;;;;;;;15.30;99.90;;;;;;5067710;28;20452;-62
2023/03/13 14:38:15;;;;;;;;;;;15.40;99.90;;;;;;5068605;28;20003;-61
2023/03/13 14:40:40;;;;;;;;;;;16.10;99.90;;;;;;5068987;28;19920;-61
2023/03/13 14:43:16;;;;;;;;;;;16.30;99.90;;;;;;5078491;28;19912;-62
2023/03/13 14:45:41;;;;;;;;;;;16.50;99.90;;;;;;5074705;28;19921;-62
2023/03/13 14:48:16;;;;;;;;;;;16.70;99.90;;;;;;5071317;28;19920;-62
2023/03/13 14:50:42;;;;;;;;;;;16.70;99.90;;;;;;5070846;28;19912;-62
2023/03/13 14:53:18;;;;;;;;;;;16.90;99.90;;;;;;5072677;28;19957;-63
2023/03/13 14:55:44;;;;;;;;;;;16.80;99.90;;;;;;5066806;28;20015;-61
2023/03/13 14:58:19;;;;;;;;;;;16.80;99.90;;;;;;5074257;28;20028;-61
2023/03/13 15:00:46;;;;;;;;;;;15.80;99.90;;;;;;5077793;28;19911;-61
2023/03/13 15:03:15;;;;;;;;;;;15.40;99.90;;;;;;5065673;28;20344;-61
2023/03/13 15:05:45;;;;;;;;;;;15.00;99.90;;;;;;5065900;28;20278;-61
2023/03/13 15:08:15;;;;;;;;;;;14.70;99.90;;;;;;5069212;28;19986;-61